sensor_id;sensor_type;location;lat;lon;timestamp;pressure;altitude;pressure_sealevel;temperature;humidity
8061;BME280;4073;42.626;25.386;2022-11-20T00:00:05;96680.31;;;16.95;100.00
8061;BME280;4073;42.626;25.386;2022-11-20T00:02:30;96714.56;;;17.12;100.00
8061;BME280;4073;42.626;25.386;2022-11-20T00:04:56;96703.75;;;17.12;100.00
8061;BME280;4073;42.626;25.386;2022-11-20T00:07:21;96688.69;;;17.11;100.00
8061;BME280;4073;42.626;25.386;2022-11-20T00:09:47;96700.31;;;16.94;100.00
8061;BME280;4073;42.626;25.386;2022-11-20T00:12:12;96700.25;;;17.11;100.00
8061;BME280;4073;42.626;25.386;2022-11-20T00:14:38;96706.47;;;17.12;100.00
8061;BME280;4073;42.626;25.386;2022-11-20T00:17:03;96701.22;;;17.07;100.00
8061;BME280;4073;42.626;25.386;2022-11-20T00:19:29;96706.16;;;17.05;100.00
8061;BME280;4073;42.626;25.386;2022-11-20T00:21:54;96695.03;;;17.06;100.00
8061;BME280;4073;42.626;25.386;2022-11-20T00:24:20;96710.94;;;17.08;100.00
8061;BME280;4073;42.626;25.386;2022-11-20T00:26:46;96690.41;;;17.07;100.00
8061;BME280;4073;42.626;25.386;2022-11-20T00:29:11;96695.97;;;17.10;100.00
8061;BME280;4073;42.626;25.386;2022-11-20T00:31:37;96667.78;;;16.91;100.00
8061;BME280;4073;42.626;25.386;2022-11-20T00:34:02;96694.56;;;17.04;100.00
8061;BME280;4073;42.626;25.386;2022-11-20T00:36:31;96670.28;;;16.96;100.00
8061;BME280;4073;42.626;25.386;2022-11-20T00:38:58;96685.47;;;17.17;100.00
8061;BME280;4073;42.626;25.386;2022-11-20T00:41:24;96685.63;;;17.21;100.00
8061;BME280;4073;42.626;25.386;2022-11-20T00:43:54;96688.97;;;17.18;100.00
8061;BME280;4073;42.626;25.386;2022-11-20T00:46:23;96668.59;;;17.20;100.00
8061;BME280;4073;42.626;25.386;2022-11-20T00:48:49;96667.69;;;17.16;100.00
8061;BME280;4073;42.626;25.386;2022-11-20T00:51:18;96687.69;;;17.15;100.00
8061;BME280;4073;42.626;25.386;2022-11-20T00:53:44;96669.44;;;17.12;100.00
8061;BME280;4073;42.626;25.386;2022-11-20T00:56:11;96668.66;;;17.12;100.00
8061;BME280;4073;42.626;25.386;2022-11-20T00:58:39;96678.56;;;16.99;100.00
8061;BME280;4073;42.626;25.386;2022-11-20T01:01:13;96695.84;;;16.98;100.00
8061;BME280;4073;42.626;25.386;2022-11-20T01:03:41;96646.00;;;16.96;100.00
8061;BME280;4073;42.626;25.386;2022-11-20T01:06:13;96695.75;;;16.86;100.00
8061;BME280;4073;42.626;25.386;2022-11-20T01:08:39;96671.00;;;16.76;100.00
8061;BME280;4073;42.626;25.386;2022-11-20T01:11:13;96652.16;;;16.59;100.00
8061;BME280;4073;42.626;25.386;2022-11-20T01:13:39;96670.00;;;16.89;100.00
8061;BME280;4073;42.626;25.386;2022-11-20T01:16:19;96678.31;;;16.84;100.00
8061;BME280;4073;42.626;25.386;2022-11-20T01:18:47;96688.94;;;16.80;100.00
8061;BME280;4073;42.626;25.386;2022-11-20T01:21:21;96685.78;;;16.70;100.00
8061;BME280;4073;42.626;25.386;2022-11-20T01:23:48;96656.31;;;16.48;100.00
8061;BME280;4073;42.626;25.386;2022-11-20T01:26:16;96692.53;;;16.47;100.00
8061;BME280;4073;42.626;25.386;2022-11-20T01:28:42;96659.53;;;16.24;100.00
8061;BME280;4073;42.626;25.386;2022-11-20T01:33:38;96663.47;;;16.44;100.00
8061;BME280;4073;42.626;25.386;2022-11-20T01:36:06;96649.66;;;16.54;100.00
8061;BME280;4073;42.626;25.386;2022-11-20T01:38:32;96665.84;;;16.45;100.00
8061;BME280;4073;42.626;25.386;2022-11-20T01:40:57;96631.09;;;16.27;100.00
8061;BME280;4073;42.626;25.386;2022-11-20T01:43:24;96652.19;;;16.50;100.00
8061;BME280;4073;42.626;25.386;2022-11-20T01:46:13;96659.00;;;16.56;100.00
8061;BME280;4073;42.626;25.386;2022-11-20T01:51:39;96642.31;;;16.54;100.00
8061;BME280;4073;42.626;25.386;2022-11-20T01:54:11;96628.72;;;16.34;100.00
8061;BME280;4073;42.626;25.386;2022-11-20T01:56:41;96653.31;;;16.49;100.00
8061;BME280;4073;42.626;25.386;2022-11-20T01:59:08;96652.16;;;16.42;100.00
8061;BME280;4073;42.626;25.386;2022-11-20T02:01:35;96643.63;;;16.40;100.00
8061;BME280;4073;42.626;25.386;2022-11-20T02:04:01;96609.69;;;16.13;100.00
8061;BME280;4073;42.626;25.386;2022-11-20T02:06:56;96635.38;;;16.36;100.00
8061;BME280;4073;42.626;25.386;2022-11-20T02:09:22;96635.38;;;16.28;100.00
8061;BME280;4073;42.626;25.386;2022-11-20T02:11:48;96628.72;;;16.25;100.00
8061;BME280;4073;42.626;25.386;2022-11-20T02:14:14;96658.69;;;16.41;100.00
8061;BME280;4073;42.626;25.386;2022-11-20T02:16:44;96662.03;;;16.38;100.00
8061;BME280;4073;42.626;25.386;2022-11-20T02:24:20;96682.19;;;16.23;100.00
8061;BME280;4073;42.626;25.386;2022-11-20T02:27:02;96691.72;;;16.29;100.00
8061;BME280;4073;42.626;25.386;2022-11-20T02:32:03;96669.97;;;16.09;100.00
8061;BME280;4073;42.626;25.386;2022-11-20T02:34:29;96699.47;;;16.31;100.00
8061;BME280;4073;42.626;25.386;2022-11-20T02:36:55;96692.34;;;16.35;100.00
8061;BME280;4073;42.626;25.386;2022-11-20T02:39:24;96684.09;;;16.31;100.00
8061;BME280;4073;42.626;25.386;2022-11-20T02:41:52;96681.25;;;16.45;100.00
8061;BME280;4073;42.626;25.386;2022-11-20T02:44:18;96677.88;;;16.56;100.00
8061;BME280;4073;42.626;25.386;2022-11-20T02:46:45;96668.03;;;16.60;100.00
8061;BME280;4073;42.626;25.386;2022-11-20T02:49:10;96657.25;;;16.52;100.00
8061;BME280;4073;42.626;25.386;2022-11-20T02:51:36;96639.94;;;16.53;100.00
8061;BME280;4073;42.626;25.386;2022-11-20T02:54:01;96667.34;;;16.80;100.00
8061;BME280;4073;42.626;25.386;2022-11-20T02:56:27;96686.22;;;16.89;100.00
8061;BME280;4073;42.626;25.386;2022-11-20T02:58:52;96672.53;;;16.94;100.00
8061;BME280;4073;42.626;25.386;2022-11-20T03:01:18;96663.16;;;16.91;100.00
8061;BME280;4073;42.626;25.386;2022-11-20T03:03:43;96657.56;;;17.05;100.00
8061;BME280;4073;42.626;25.386;2022-11-20T03:06:09;96669.31;;;17.00;100.00
8061;BME280;4073;42.626;25.386;2022-11-20T03:08:34;96663.59;;;17.02;100.00
8061;BME280;4073;42.626;25.386;2022-11-20T03:11:05;96642.88;;;16.85;100.00
8061;BME280;4073;42.626;25.386;2022-11-20T03:13:31;96680.13;;;17.00;100.00
8061;BME280;4073;42.626;25.386;2022-11-20T03:15:56;96678.06;;;16.97;100.00
8061;BME280;4073;42.626;25.386;2022-11-20T03:18:22;96674.56;;;16.97;100.00
8061;BME280;4073;42.626;25.386;2022-11-20T03:20:47;96651.31;;;16.84;100.00
8061;BME280;4073;42.626;25.386;2022-11-20T03:23:13;96637.97;;;16.79;100.00
8061;BME280;4073;42.626;25.386;2022-11-20T03:25:38;96628.28;;;16.78;100.00
8061;BME280;4073;42.626;25.386;2022-11-20T03:28:04;96631.00;;;16.78;100.00
8061;BME280;4073;42.626;25.386;2022-11-20T03:30:29;96619.22;;;16.82;100.00
8061;BME280;4073;42.626;25.386;2022-11-20T03:32:55;96647.25;;;16.98;100.00
8061;BME280;4073;42.626;25.386;2022-11-20T03:35:20;96639.81;;;16.95;100.00
8061;BME280;4073;42.626;25.386;2022-11-20T03:37:46;96644.09;;;16.96;100.00
8061;BME280;4073;42.626;25.386;2022-11-20T03:40:11;96645.34;;;16.99;100.00
8061;BME280;4073;42.626;25.386;2022-11-20T03:42:37;96639.16;;;16.98;100.00
8061;BME280;4073;42.626;25.386;2022-11-20T03:45:16;96635.38;;;16.91;100.00
8061;BME280;4073;42.626;25.386;2022-11-20T03:47:42;96643.16;;;16.92;100.00
8061;BME280;4073;42.626;25.386;2022-11-20T03:50:09;96620.34;;;16.73;100.00
8061;BME280;4073;42.626;25.386;2022-11-20T03:52:35;96627.03;;;16.75;100.00
8061;BME280;4073;42.626;25.386;2022-11-20T03:55:00;96642.53;;;16.95;100.00
8061;BME280;4073;42.626;25.386;2022-11-20T03:57:26;96643.81;;;16.89;100.00
8061;BME280;4073;42.626;25.386;2022-11-20T03:59:51;96639.88;;;16.78;100.00
8061;BME280;4073;42.626;25.386;2022-11-20T04:02:17;96640.84;;;16.74;100.00
8061;BME280;4073;42.626;25.386;2022-11-20T04:04:42;96673.31;;;16.94;100.00
8061;BME280;4073;42.626;25.386;2022-11-20T04:07:08;96649.03;;;16.94;100.00
8061;BME280;4073;42.626;25.386;2022-11-20T04:09:33;96659.69;;;16.91;100.00
8061;BME280;4073;42.626;25.386;2022-11-20T04:11:59;96659.50;;;16.96;100.00
8061;BME280;4073;42.626;25.386;2022-11-20T04:14:24;96660.91;;;17.02;100.00
8061;BME280;4073;42.626;25.386;2022-11-20T04:16:50;96643.03;;;16.80;100.00
8061;BME280;4073;42.626;25.386;2022-11-20T04:19:16;96668.53;;;17.00;100.00
8061;BME280;4073;42.626;25.386;2022-11-20T04:21:43;96661.88;;;16.97;100.00
8061;BME280;4073;42.626;25.386;2022-11-20T04:24:09;96655.66;;;16.97;100.00
8061;BME280;4073;42.626;25.386;2022-11-20T04:26:36;96668.09;;;16.98;100.00
8061;BME280;4073;42.626;25.386;2022-11-20T04:29:02;96676.19;;;16.98;100.00
8061;BME280;4073;42.626;25.386;2022-11-20T04:31:30;96678.41;;;16.96;100.00
8061;BME280;4073;42.626;25.386;2022-11-20T04:34:00;96684.59;;;16.96;100.00
8061;BME280;4073;42.626;25.386;2022-11-20T04:36:27;96700.47;;;16.98;100.00
8061;BME280;4073;42.626;25.386;2022-11-20T04:38:54;96693.81;;;16.95;100.00
8061;BME280;4073;42.626;25.386;2022-11-20T04:41:21;96686.69;;;16.91;100.00
8061;BME280;4073;42.626;25.386;2022-11-20T04:43:52;96700.66;;;16.93;100.00
8061;BME280;4073;42.626;25.386;2022-11-20T04:46:20;96701.59;;;16.88;100.00
8061;BME280;4073;42.626;25.386;2022-11-20T04:48:46;96696.56;;;16.87;100.00
8061;BME280;4073;42.626;25.386;2022-11-20T04:51:12;96688.91;;;16.89;100.00
8061;BME280;4073;42.626;25.386;2022-11-20T04:53:38;96667.66;;;16.79;100.00
8061;BME280;4073;42.626;25.386;2022-11-20T04:56:06;96679.72;;;16.81;100.00
8061;BME280;4073;42.626;25.386;2022-11-20T04:58:32;96668.28;;;16.84;100.00
8061;BME280;4073;42.626;25.386;2022-11-20T05:01:09;96699.47;;;17.11;100.00
8061;BME280;4073;42.626;25.386;2022-11-20T05:03:35;96706.16;;;17.05;100.00
8061;BME280;4073;42.626;25.386;2022-11-20T05:06:03;96703.28;;;17.10;100.00
8061;BME280;4073;42.626;25.386;2022-11-20T05:08:29;96696.75;;;17.19;100.00
8061;BME280;4073;42.626;25.386;2022-11-20T05:11:06;96697.53;;;17.20;100.00
8061;BME280;4073;42.626;25.386;2022-11-20T05:13:32;96691.78;;;17.21;100.00
8061;BME280;4073;42.626;25.386;2022-11-20T05:16:09;96704.69;;;17.16;100.00
8061;BME280;4073;42.626;25.386;2022-11-20T05:18:36;96700.91;;;17.08;100.00
8061;BME280;4073;42.626;25.386;2022-11-20T05:21:02;96697.75;;;17.06;100.00
8061;BME280;4073;42.626;25.386;2022-11-20T05:23:29;96693.59;;;17.09;100.00
8061;BME280;4073;42.626;25.386;2022-11-20T05:25:56;96690.28;;;17.03;100.00
8061;BME280;4073;42.626;25.386;2022-11-20T05:28:22;96689.16;;;17.04;100.00
8061;BME280;4073;42.626;25.386;2022-11-20T05:30:48;96693.94;;;16.99;100.00
8061;BME280;4073;42.626;25.386;2022-11-20T05:33:14;96692.06;;;16.99;100.00
8061;BME280;4073;42.626;25.386;2022-11-20T05:35:39;96682.69;;;16.97;100.00
8061;BME280;4073;42.626;25.386;2022-11-20T05:38:05;96676.25;;;16.81;100.00
8061;BME280;4073;42.626;25.386;2022-11-20T05:40:30;96693.84;;;16.78;100.00
8061;BME280;4073;42.626;25.386;2022-11-20T05:42:56;96699.53;;;16.94;100.00
8061;BME280;4073;42.626;25.386;2022-11-20T05:45:21;96688.88;;;16.97;100.00
8061;BME280;4073;42.626;25.386;2022-11-20T05:47:47;96710.97;;;16.99;100.00
8061;BME280;4073;42.626;25.386;2022-11-20T05:50:13;96703.81;;;16.95;100.00
8061;BME280;4073;42.626;25.386;2022-11-20T05:52:39;96706.34;;;17.00;100.00
8061;BME280;4073;42.626;25.386;2022-11-20T05:55:05;96709.84;;;17.00;100.00
8061;BME280;4073;42.626;25.386;2022-11-20T05:57:31;96690.81;;;16.88;100.00
8061;BME280;4073;42.626;25.386;2022-11-20T05:59:57;96689.06;;;16.92;100.00
8061;BME280;4073;42.626;25.386;2022-11-20T06:02:22;96705.97;;;17.10;100.00
8061;BME280;4073;42.626;25.386;2022-11-20T06:04:48;96704.38;;;17.17;100.00
8061;BME280;4073;42.626;25.386;2022-11-20T06:07:14;96712.00;;;17.15;100.00
8061;BME280;4073;42.626;25.386;2022-11-20T06:09:39;96716.63;;;17.15;100.00
8061;BME280;4073;42.626;25.386;2022-11-20T06:12:05;96729.31;;;17.14;100.00
8061;BME280;4073;42.626;25.386;2022-11-20T06:14:31;96725.47;;;17.24;100.00
8061;BME280;4073;42.626;25.386;2022-11-20T06:16:56;96722.13;;;17.27;100.00
8061;BME280;4073;42.626;25.386;2022-11-20T06:19:22;96726.06;;;17.38;100.00
8061;BME280;4073;42.626;25.386;2022-11-20T06:21:48;96721.09;;;17.40;100.00
8061;BME280;4073;42.626;25.386;2022-11-20T06:24:17;96707.78;;;17.43;100.00
8061;BME280;4073;42.626;25.386;2022-11-20T06:26:43;96721.19;;;17.60;100.00
8061;BME280;4073;42.626;25.386;2022-11-20T06:29:09;96727.31;;;17.69;100.00
8061;BME280;4073;42.626;25.386;2022-11-20T06:31:35;96694.50;;;17.59;100.00
8061;BME280;4073;42.626;25.386;2022-11-20T06:34:04;96712.44;;;17.84;100.00
8061;BME280;4073;42.626;25.386;2022-11-20T06:36:30;96722.94;;;17.85;100.00
8061;BME280;4073;42.626;25.386;2022-11-20T06:38:56;96720.44;;;17.80;100.00
8061;BME280;4073;42.626;25.386;2022-11-20T06:41:21;96731.53;;;17.87;100.00
8061;BME280;4073;42.626;25.386;2022-11-20T06:43:48;96734.22;;;18.08;100.00
8061;BME280;4073;42.626;25.386;2022-11-20T06:46:14;96743.91;;;18.09;100.00
8061;BME280;4073;42.626;25.386;2022-11-20T06:48:42;96743.19;;;18.21;100.00
8061;BME280;4073;42.626;25.386;2022-11-20T06:51:08;96747.56;;;18.13;100.00
8061;BME280;4073;42.626;25.386;2022-11-20T06:53:34;96747.16;;;18.02;100.00
8061;BME280;4073;42.626;25.386;2022-11-20T06:56:00;96729.31;;;17.81;100.00
8061;BME280;4073;42.626;25.386;2022-11-20T06:58:31;96761.94;;;17.84;100.00
8061;BME280;4073;42.626;25.386;2022-11-20T07:01:05;96751.97;;;17.68;100.00
8061;BME280;4073;42.626;25.386;2022-11-20T07:03:30;96745.19;;;17.62;100.00
8061;BME280;4073;42.626;25.386;2022-11-20T07:05:57;96744.56;;;17.65;100.00
8061;BME280;4073;42.626;25.386;2022-11-20T07:08:23;96743.91;;;17.59;100.00
8061;BME280;4073;42.626;25.386;2022-11-20T07:10:49;96757.75;;;17.58;100.00
8061;BME280;4073;42.626;25.386;2022-11-20T07:13:14;96732.22;;;17.47;100.00
8061;BME280;4073;42.626;25.386;2022-11-20T07:15:40;96741.97;;;17.68;100.00
8061;BME280;4073;42.626;25.386;2022-11-20T07:18:05;96753.72;;;17.72;100.00
8061;BME280;4073;42.626;25.386;2022-11-20T07:20:31;96732.34;;;17.59;100.00
8061;BME280;4073;42.626;25.386;2022-11-20T07:22:57;96730.22;;;17.64;100.00
8061;BME280;4073;42.626;25.386;2022-11-20T07:25:24;96738.69;;;17.83;100.00
8061;BME280;4073;42.626;25.386;2022-11-20T07:27:50;96756.09;;;18.03;100.00
8061;BME280;4073;42.626;25.386;2022-11-20T07:30:16;96761.88;;;18.14;100.00
8061;BME280;4073;42.626;25.386;2022-11-20T07:32:42;96744.16;;;18.25;100.00
8061;BME280;4073;42.626;25.386;2022-11-20T07:35:07;96748.19;;;19.37;100.00
8061;BME280;4073;42.626;25.386;2022-11-20T07:37:36;96754.41;;;20.49;100.00
8061;BME280;4073;42.626;25.386;2022-11-20T07:40:02;96748.91;;;20.61;100.00
8061;BME280;4073;42.626;25.386;2022-11-20T07:42:28;96719.72;;;20.58;100.00
8061;BME280;4073;42.626;25.386;2022-11-20T07:44:54;96723.72;;;21.50;100.00
8061;BME280;4073;42.626;25.386;2022-11-20T07:47:19;96749.81;;;22.17;100.00
8061;BME280;4073;42.626;25.386;2022-11-20T07:49:44;96751.91;;;21.73;100.00
8061;BME280;4073;42.626;25.386;2022-11-20T07:52:10;96731.69;;;20.97;100.00
8061;BME280;4073;42.626;25.386;2022-11-20T07:54:35;96760.31;;;20.39;100.00
8061;BME280;4073;42.626;25.386;2022-11-20T07:57:01;96742.75;;;19.85;100.00
8061;BME280;4073;42.626;25.386;2022-11-20T07:59:26;96757.66;;;19.67;100.00
8061;BME280;4073;42.626;25.386;2022-11-20T08:01:52;96762.16;;;19.39;100.00
8061;BME280;4073;42.626;25.386;2022-11-20T08:04:17;96753.97;;;19.15;100.00
8061;BME280;4073;42.626;25.386;2022-11-20T08:06:42;96738.78;;;18.90;100.00
8061;BME280;4073;42.626;25.386;2022-11-20T08:09:10;96757.75;;;18.90;100.00
8061;BME280;4073;42.626;25.386;2022-11-20T08:11:35;96768.75;;;18.73;100.00
8061;BME280;4073;42.626;25.386;2022-11-20T08:14:19;96761.28;;;18.70;100.00
8061;BME280;4073;42.626;25.386;2022-11-20T08:16:49;96759.19;;;18.55;100.00
8061;BME280;4073;42.626;25.386;2022-11-20T08:19:17;96760.78;;;18.56;100.00
8061;BME280;4073;42.626;25.386;2022-11-20T08:21:43;96738.97;;;18.40;100.00
8061;BME280;4073;42.626;25.386;2022-11-20T08:24:10;96764.50;;;18.51;100.00
8061;BME280;4073;42.626;25.386;2022-11-20T08:26:37;96745.28;;;18.44;100.00
8061;BME280;4073;42.626;25.386;2022-11-20T08:29:03;96748.97;;;18.40;100.00
8061;BME280;4073;42.626;25.386;2022-11-20T08:31:29;96746.31;;;18.31;100.00
8061;BME280;4073;42.626;25.386;2022-11-20T08:33:55;96746.31;;;18.31;100.00
8061;BME280;4073;42.626;25.386;2022-11-20T08:36:22;96737.53;;;18.34;100.00
8061;BME280;4073;42.626;25.386;2022-11-20T08:38:54;96745.97;;;18.33;100.00
8061;BME280;4073;42.626;25.386;2022-11-20T08:41:21;96724.06;;;18.26;100.00
8061;BME280;4073;42.626;25.386;2022-11-20T08:43:56;96741.03;;;18.35;100.00
8061;BME280;4073;42.626;25.386;2022-11-20T08:46:23;96735.16;;;18.33;100.00
8061;BME280;4073;42.626;25.386;2022-11-20T08:48:49;96715.56;;;18.15;100.00
8061;BME280;4073;42.626;25.386;2022-11-20T08:51:14;96731.22;;;18.30;100.00
8061;BME280;4073;42.626;25.386;2022-11-20T08:53:41;96728.50;;;18.30;100.00
8061;BME280;4073;42.626;25.386;2022-11-20T08:56:07;96712.09;;;18.15;100.00
8061;BME280;4073;42.626;25.386;2022-11-20T08:58:34;96729.59;;;18.29;100.00
8061;BME280;4073;42.626;25.386;2022-11-20T09:01:00;96723.16;;;18.22;100.00
8061;BME280;4073;42.626;25.386;2022-11-20T09:03:25;96718.34;;;18.27;100.00
8061;BME280;4073;42.626;25.386;2022-11-20T09:06:00;96712.59;;;18.29;100.00
8061;BME280;4073;42.626;25.386;2022-11-20T09:08:27;96708.91;;;18.33;100.00
8061;BME280;4073;42.626;25.386;2022-11-20T09:10:53;96706.16;;;18.42;100.00
8061;BME280;4073;42.626;25.386;2022-11-20T09:13:20;96679.13;;;18.33;100.00
8061;BME280;4073;42.626;25.386;2022-11-20T09:15:45;96703.81;;;18.52;100.00
8061;BME280;4073;42.626;25.386;2022-11-20T09:18:11;96679.44;;;18.52;100.00
8061;BME280;4073;42.626;25.386;2022-11-20T09:20:36;96695.41;;;18.78;100.00
8061;BME280;4073;42.626;25.386;2022-11-20T09:23:02;96677.28;;;18.78;100.00
8061;BME280;4073;42.626;25.386;2022-11-20T09:25:28;96678.53;;;18.93;100.00
8061;BME280;4073;42.626;25.386;2022-11-20T09:27:58;96690.63;;;19.07;100.00
8061;BME280;4073;42.626;25.386;2022-11-20T09:30:24;96689.84;;;19.07;100.00
8061;BME280;4073;42.626;25.386;2022-11-20T09:32:49;96697.06;;;19.03;100.00
8061;BME280;4073;42.626;25.386;2022-11-20T09:35:15;96647.69;;;18.73;100.00
8061;BME280;4073;42.626;25.386;2022-11-20T09:37:41;96652.44;;;18.76;100.00
8061;BME280;4073;42.626;25.386;2022-11-20T09:40:21;96672.66;;;18.91;100.00
8061;BME280;4073;42.626;25.386;2022-11-20T09:43:05;96678.88;;;18.91;100.00
8061;BME280;4073;42.626;25.386;2022-11-20T09:54:16;96673.16;;;19.29;100.00
8061;BME280;4073;42.626;25.386;2022-11-20T09:56:53;96641.88;;;19.19;100.00
8061;BME280;4073;42.626;25.386;2022-11-20T09:59:37;96658.03;;;19.28;100.00
8061;BME280;4073;42.626;25.386;2022-11-20T10:02:28;96658.69;;;19.25;100.00
8061;BME280;4073;42.626;25.386;2022-11-20T10:10:26;96633.19;;;19.14;100.00
8061;BME280;4073;42.626;25.386;2022-11-20T10:18:48;96643.47;;;19.44;100.00
8061;BME280;4073;42.626;25.386;2022-11-20T10:22:18;96633.41;;;19.45;100.00
8061;BME280;4073;42.626;25.386;2022-11-20T10:30:16;96653.53;;;19.32;100.00
8061;BME280;4073;42.626;25.386;2022-11-20T10:32:48;96648.00;;;19.28;100.00
8061;BME280;4073;42.626;25.386;2022-11-20T10:37:44;96645.72;;;19.30;100.00
8061;BME280;4073;42.626;25.386;2022-11-20T10:40:22;96642.13;;;19.38;100.00
8061;BME280;4073;42.626;25.386;2022-11-20T10:42:56;96648.09;;;19.44;100.00
8061;BME280;4073;42.626;25.386;2022-11-20T10:47:52;96661.41;;;19.49;100.00
8061;BME280;4073;42.626;25.386;2022-11-20T10:50:20;96658.16;;;19.43;100.00
8061;BME280;4073;42.626;25.386;2022-11-20T10:52:59;96668.88;;;19.40;100.00
8061;BME280;4073;42.626;25.386;2022-11-20T10:55:47;96649.22;;;19.43;100.00
8061;BME280;4073;42.626;25.386;2022-11-20T10:58:20;96632.28;;;19.46;100.00
8061;BME280;4073;42.626;25.386;2022-11-20T11:00:48;96648.97;;;19.60;100.00
8061;BME280;4073;42.626;25.386;2022-11-20T11:03:23;96641.50;;;19.69;100.00
8061;BME280;4073;42.626;25.386;2022-11-20T11:05:54;96631.66;;;19.76;100.00
8061;BME280;4073;42.626;25.386;2022-11-20T11:08:26;96628.91;;;19.88;100.00
8061;BME280;4073;42.626;25.386;2022-11-20T11:10:56;96624.28;;;19.89;100.00
8061;BME280;4073;42.626;25.386;2022-11-20T11:13:28;96613.50;;;19.92;100.00
8061;BME280;4073;42.626;25.386;2022-11-20T11:15:54;96585.06;;;19.86;100.00
8061;BME280;4073;42.626;25.386;2022-11-20T11:18:28;96592.91;;;20.03;100.00
8061;BME280;4073;42.626;25.386;2022-11-20T11:20:56;96594.03;;;20.02;100.00
8061;BME280;4073;42.626;25.386;2022-11-20T11:23:42;96591.78;;;20.04;100.00
8061;BME280;4073;42.626;25.386;2022-11-20T11:26:37;96589.94;;;20.08;100.00
8061;BME280;4073;42.626;25.386;2022-11-20T11:29:03;96600.16;;;20.11;100.00
8061;BME280;4073;42.626;25.386;2022-11-20T11:31:31;96587.81;;;20.14;100.00
8061;BME280;4073;42.626;25.386;2022-11-20T11:34:08;96585.72;;;20.23;100.00
8061;BME280;4073;42.626;25.386;2022-11-20T11:36:37;96577.94;;;20.21;100.00
8061;BME280;4073;42.626;25.386;2022-11-20T11:39:05;96558.88;;;20.06;100.00
8061;BME280;4073;42.626;25.386;2022-11-20T11:41:32;96568.25;;;20.08;100.00
8061;BME280;4073;42.626;25.386;2022-11-20T11:44:15;96587.31;;;20.24;100.00
8061;BME280;4073;42.626;25.386;2022-11-20T11:47:00;96578.47;;;20.27;100.00
8061;BME280;4073;42.626;25.386;2022-11-20T11:49:25;96576.50;;;20.55;100.00
8061;BME280;4073;42.626;25.386;2022-11-20T11:54:43;96567.72;;;21.24;100.00
8061;BME280;4073;42.626;25.386;2022-11-20T12:02:28;96566.13;;;21.73;100.00
8061;BME280;4073;42.626;25.386;2022-11-20T12:16:00;96570.88;;;21.60;97.73
8061;BME280;4073;42.626;25.386;2022-11-20T12:18:27;96550.06;;;21.33;99.05
8061;BME280;4073;42.626;25.386;2022-11-20T12:26:54;96561.50;;;21.08;100.00
8061;BME280;4073;42.626;25.386;2022-11-20T12:34:52;96566.59;;;20.78;100.00
8061;BME280;4073;42.626;25.386;2022-11-20T12:43:36;96564.16;;;20.73;100.00
8061;BME280;4073;42.626;25.386;2022-11-20T13:00:33;96523.47;;;20.14;100.00
8061;BME280;4073;42.626;25.386;2022-11-20T13:08:37;96556.25;;;20.53;100.00
8061;BME280;4073;42.626;25.386;2022-11-20T13:11:42;96538.41;;;20.52;100.00
8061;BME280;4073;42.626;25.386;2022-11-20T13:14:26;96542.97;;;20.48;100.00
8061;BME280;4073;42.626;25.386;2022-11-20T13:16:58;96553.63;;;20.41;100.00
8061;BME280;4073;42.626;25.386;2022-11-20T13:19:26;96542.50;;;20.30;100.00
8061;BME280;4073;42.626;25.386;2022-11-20T13:21:53;96522.13;;;20.08;100.00
8061;BME280;4073;42.626;25.386;2022-11-20T13:26:45;96541.25;;;20.12;100.00
8061;BME280;4073;42.626;25.386;2022-11-20T13:29:16;96540.91;;;20.01;100.00
8061;BME280;4073;42.626;25.386;2022-11-20T13:31:45;96533.03;;;19.96;100.00
8061;BME280;4073;42.626;25.386;2022-11-20T13:34:23;96511.66;;;19.79;100.00
8061;BME280;4073;42.626;25.386;2022-11-20T13:36:54;96529.22;;;19.85;100.00
8061;BME280;4073;42.626;25.386;2022-11-20T13:39:29;96535.72;;;19.81;100.00
8061;BME280;4073;42.626;25.386;2022-11-20T13:42:20;96533.16;;;19.72;100.00
8061;BME280;4073;42.626;25.386;2022-11-20T13:44:54;96526.66;;;19.77;100.00
8061;BME280;4073;42.626;25.386;2022-11-20T13:47:27;96519.72;;;19.64;100.00
8061;BME280;4073;42.626;25.386;2022-11-20T13:49:55;96527.28;;;19.70;100.00
8061;BME280;4073;42.626;25.386;2022-11-20T14:00:31;96507.16;;;19.44;100.00
8061;BME280;4073;42.626;25.386;2022-11-20T14:03:23;96522.47;;;19.52;100.00
8061;BME280;4073;42.626;25.386;2022-11-20T14:05:52;96534.66;;;19.58;100.00
8061;BME280;4073;42.626;25.386;2022-11-20T14:08:36;96513.13;;;19.49;100.00
8061;BME280;4073;42.626;25.386;2022-11-20T14:11:24;96529.81;;;19.51;100.00
8061;BME280;4073;42.626;25.386;2022-11-20T14:14:17;96531.88;;;19.42;100.00
8061;BME280;4073;42.626;25.386;2022-11-20T14:16:43;96521.19;;;19.34;100.00
8061;BME280;4073;42.626;25.386;2022-11-20T14:22:06;96530.44;;;19.21;100.00
8061;BME280;4073;42.626;25.386;2022-11-20T14:24:32;96531.31;;;19.25;100.00
8061;BME280;4073;42.626;25.386;2022-11-20T14:26:57;96529.97;;;19.19;100.00
8061;BME280;4073;42.626;25.386;2022-11-20T14:29:29;96529.41;;;19.13;100.00
8061;BME280;4073;42.626;25.386;2022-11-20T14:31:58;96528.41;;;19.06;100.00
8061;BME280;4073;42.626;25.386;2022-11-20T14:34:38;96526.84;;;19.05;100.00
8061;BME280;4073;42.626;25.386;2022-11-20T14:37:10;96526.63;;;18.98;100.00
8061;BME280;4073;42.626;25.386;2022-11-20T14:39:40;96533.06;;;18.93;100.00
8061;BME280;4073;42.626;25.386;2022-11-20T14:42:26;96544.91;;;18.89;100.00
8061;BME280;4073;42.626;25.386;2022-11-20T14:44:55;96549.22;;;18.90;100.00
8061;BME280;4073;42.626;25.386;2022-11-20T14:47:23;96563.75;;;18.85;100.00
8061;BME280;4073;42.626;25.386;2022-11-20T14:49:52;96573.03;;;18.84;100.00
8061;BME280;4073;42.626;25.386;2022-11-20T14:52:21;96573.91;;;18.76;100.00
8061;BME280;4073;42.626;25.386;2022-11-20T14:54:49;96589.81;;;18.66;100.00
8061;BME280;4073;42.626;25.386;2022-11-20T14:57:30;96586.06;;;18.58;100.00
8061;BME280;4073;42.626;25.386;2022-11-20T15:00:23;96590.44;;;18.39;100.00
8061;BME280;4073;42.626;25.386;2022-11-20T15:02:51;96570.28;;;18.16;100.00